Kansasville, WI (53139)

9:55 AM CDT on August 30, 2015 (GMT -0500)
Jacobs Rd. | | Change Station
CLOSE
Current Station
Personal Weather Station
Location: Waterford, WI
Elevation: 797 ft
Nearby Weather Stations

Elev 797 ft 42.77 °N, 88.14 °W | Updated 56 seconds ago

Overcast
Overcast
66.7 °F
Feels Like 66.7 °F
N
1.8
Wind Variable Wind from NW
Gusts 2.5 mph

Today
High -- | Low -- °F
--% Chance of Precip.
Yesterday
High -- | Low -- °F
Precip. -- in
6:14 AM 7:30 PM
Full, 99% visible
Pressure 30.09 in
Visibility 10.0 miles
Clouds Mostly Cloudy 900 ft
Overcast 2100 ft
Dew Point 64 °F
Humidity 91%
Rainfall 0.00 in
Snow Depth Not available.
UV 1.0 out of 12
Pollen 8.70 out of 12
Air Quality Not available.
Flu Activity Not available.
METAR KBUU 301435Z AUTO 04003KT 10SM BKN009 OVC021 19/16 A3009 RMK AO2 T01850161
Pressure 30.09 in
Visibility 10.0 miles
Clouds Mostly Cloudy 900 ft
Overcast 2100 ft
Dew Point 64 °F
Humidity 91%
Rainfall 0.00 in
Snow Depth Not available.
UV 1.0 out of 12
Pollen 8.70 out of 12
Air Quality Not available.
Flu Activity Not available.
METAR KBUU 301435Z AUTO 04003KT 10SM BKN009 OVC021 19/16 A3009 RMK AO2 T01850161

10-Day Weather Forecast

×

Almanac

Astronomy

Aug. 30, 2015 Rise Set
Actual Time
Civil Twilight
Nautical Twilight
Astronomical Twilight
Moon
Length of Visible Light
Length of Day
Tomorrow will be .
, % of the Moon is Illuminated

Today's Extremes

State Highs State Lows

Community

WunderPhotos

Upload Photos

1,850,974 photos uploaded!

WunderBlogs® & News

Nearby

Air Quality

  Air Quality AQ Index Pollutant
Not available.

Snow Depth

Station Depth Elevation

Earthquake Activity

City Distance Mag. Time & Date
Minimum magnitude displayed is 2.5.

Coastal Water Temperatures

Place Temperature

Stations

Nearby Weather Stations

Station Location Temp. Windchill Dew Point Humidity Wind Precip. Elev Updated Type